Time,TemperatureF,DewpointF,PressureIn,WindDirection,WindDirectionDegrees,WindSpeedMPH,WindSpeedGustMPH,Humidity,HourlyPrecipIn,Conditions,Clouds,dailyrainin,SoftwareType,DateUTC
2013-03-08 00:09:00,61.2,33.3,29.71,NNE,22,1.6,-999.0,35,-99.99,,,0.00,Acu-Link.com,2013-03-08 07:09:00,
2013-03-08 00:24:00,61.0,33.1,29.70,NNE,22,0.0,-999.0,35,-99.99,,,0.00,Acu-Link.com,2013-03-08 07:24:00,
2013-03-08 00:39:00,61.2,32.6,29.69,NNW,337,4.3,-999.0,34,-99.99,,,0.00,Acu-Link.com,2013-03-08 07:39:00,
2013-03-08 00:54:00,61.2,31.8,29.68,NNW,337,6.3,-999.0,33,-99.99,,,0.00,Acu-Link.com,2013-03-08 07:54:00,
2013-03-08 01:10:00,61.5,32.1,29.68,NNW,337,5.8,-999.0,33,-99.99,,,0.00,Acu-Link.com,2013-03-08 08:10:00,
2013-03-08 01:25:00,61.0,32.4,29.68,NW,315,1.6,-999.0,34,-99.99,,,0.00,Acu-Link.com,2013-03-08 08:25:00,
2013-03-08 01:40:00,60.4,32.7,29.68,NNW,337,0.0,-999.0,35,-99.99,,,0.00,Acu-Link.com,2013-03-08 08:40:00,
2013-03-08 01:55:00,59.9,32.2,29.67,West,270,2.7,-999.0,35,-99.99,,,0.00,Acu-Link.com,2013-03-08 08:55:00,
2013-03-08 02:10:00,60.1,32.3,29.67,West,270,0.0,-999.0,35,-99.99,,,0.00,Acu-Link.com,2013-03-08 09:10:00,
2013-03-08 02:25:00,60.3,33.2,29.66,NW,315,0.0,-999.0,36,-99.99,,,0.00,Acu-Link.com,2013-03-08 09:25:00,
2013-03-08 02:40:00,60.1,33.0,29.66,WNW,292,3.8,-999.0,36,-99.99,,,0.00,Acu-Link.com,2013-03-08 09:40:00,
2013-03-08 02:55:00,59.9,33.6,29.66,WNW,292,3.8,-999.0,37,-99.99,,,0.00,Acu-Link.com,2013-03-08 09:55:00,
2013-03-08 03:11:00,59.9,32.9,29.65,West,270,3.1,-999.0,36,-99.99,,,0.00,Acu-Link.com,2013-03-08 10:11:00,
2013-03-08 03:26:00,59.5,33.2,29.65,West,270,3.1,-999.0,37,-99.99,,,0.00,Acu-Link.com,2013-03-08 10:26:00,
2013-03-08 03:41:00,59.4,33.8,29.64,WSW,247,2.7,-999.0,38,-99.99,,,0.00,Acu-Link.com,2013-03-08 10:41:00,
2013-03-08 03:56:00,59.7,32.7,29.64,SW,225,6.7,-999.0,36,-99.99,,,0.00,Acu-Link.com,2013-03-08 10:56:00,
2013-03-08 04:11:00,59.9,36.8,29.64,WSW,247,4.7,-999.0,42,-99.99,,,0.00,Acu-Link.com,2013-03-08 11:11:00,
2013-03-08 04:26:00,60.1,38.7,29.65,WNW,292,7.4,-999.0,45,-99.99,,,0.00,Acu-Link.com,2013-03-08 11:26:00,
2013-03-08 04:41:00,59.9,36.1,29.64,WNW,292,17.7,-999.0,41,-99.99,,,0.00,Acu-Link.com,2013-03-08 11:41:00,
2013-03-08 04:57:00,60.6,34.9,29.65,West,270,14.5,-999.0,38,-99.99,,,0.00,Acu-Link.com,2013-03-08 11:57:00,
2013-03-08 05:12:00,59.7,36.6,29.66,WNW,292,18.6,-999.0,42,-99.99,,,0.00,Acu-Link.com,2013-03-08 12:12:00,
2013-03-08 05:27:00,57.7,41.7,29.66,WNW,292,19.7,-999.0,55,-99.99,,,0.00,Acu-Link.com,2013-03-08 12:27:00,
2013-03-08 05:42:00,56.8,43.5,29.66,West,270,14.1,-999.0,61,-99.99,,,0.00,Acu-Link.com,2013-03-08 12:42:00,
2013-03-08 05:57:00,56.1,46.8,29.65,NW,315,6.3,-999.0,71,-99.99,,,0.00,Acu-Link.com,2013-03-08 12:57:00,
2013-03-08 06:13:00,55.4,48.3,29.64,NNW,337,7.4,-999.0,77,-99.99,,,0.00,Acu-Link.com,2013-03-08 13:13:00,
2013-03-08 06:28:00,54.5,48.1,29.64,NNW,337,9.4,-999.0,79,-99.99,,,0.00,Acu-Link.com,2013-03-08 13:28:00,
2013-03-08 06:43:00,54.5,47.4,29.65,NNW,337,8.3,-999.0,77,-99.99,,,0.00,Acu-Link.com,2013-03-08 13:43:00,
2013-03-08 06:58:00,54.3,46.6,29.65,NW,315,7.4,-999.0,75,-99.99,,,0.00,Acu-Link.com,2013-03-08 13:58:00,
2013-03-08 07:13:00,54.3,46.2,29.65,NW,315,4.3,-999.0,74,-99.99,,,0.00,Acu-Link.com,2013-03-08 14:13:00,
2013-03-08 07:28:00,54.3,46.9,29.65,North,0,1.6,-999.0,76,-99.99,,,0.00,Acu-Link.com,2013-03-08 14:28:00,
2013-03-08 07:43:00,54.3,47.3,29.64,WNW,292,3.8,-999.0,77,-99.99,,,0.00,Acu-Link.com,2013-03-08 14:43:00,
2013-03-08 07:58:00,55.0,47.6,29.66,NW,315,3.1,-999.0,76,-99.99,,,0.00,Acu-Link.com,2013-03-08 14:58:00,
2013-03-08 08:13:00,56.1,48.3,29.66,NNW,337,6.3,-999.0,75,-99.99,,,0.00,Acu-Link.com,2013-03-08 15:13:00,
2013-03-08 08:29:00,59.4,48.0,29.67,North,0,5.1,-999.0,66,-99.99,,,0.00,Acu-Link.com,2013-03-08 15:29:00,
2013-03-08 08:44:00,60.1,45.7,29.67,NNW,337,6.7,-999.0,59,-99.99,,,0.00,Acu-Link.com,2013-03-08 15:44:00,
2013-03-08 08:59:00,59.9,44.6,29.67,West,270,2.2,-999.0,57,-99.99,,,0.00,Acu-Link.com,2013-03-08 15:59:00,
2013-03-08 09:14:00,60.1,44.3,29.68,SE,135,4.7,-999.0,56,-99.99,,,0.00,Acu-Link.com,2013-03-08 16:14:00,
2013-03-08 09:29:00,60.6,42.4,29.68,SSW,202,4.7,-999.0,51,-99.99,,,0.00,Acu-Link.com,2013-03-08 16:29:00,
2013-03-08 09:45:00,61.2,42.4,29.69,SW,225,8.3,-999.0,50,-99.99,,,0.00,Acu-Link.com,2013-03-08 16:45:00,
2013-03-08 10:00:00,55.2,48.8,29.70,West,270,18.6,-999.0,79,-99.99,,,0.00,Acu-Link.com,2013-03-08 17:00:00,
2013-03-08 10:15:00,53.4,49.6,29.72,West,270,18.6,-999.0,87,-99.99,,,0.01,Acu-Link.com,2013-03-08 17:15:00,
2013-03-08 10:31:00,52.7,48.3,29.73,West,270,17.0,-999.0,85,-99.99,,,0.02,Acu-Link.com,2013-03-08 17:31:00,
2013-03-08 10:46:00,52.0,46.0,29.74,West,270,13.0,-999.0,80,-99.99,,,0.04,Acu-Link.com,2013-03-08 17:46:00,
2013-03-08 11:01:00,52.0,48.2,29.73,West,270,8.3,-999.0,87,-99.99,,,0.08,Acu-Link.com,2013-03-08 18:01:00,
2013-03-08 11:16:00,53.1,49.0,29.73,WSW,247,6.7,-999.0,86,-99.99,,,0.11,Acu-Link.com,2013-03-08 18:16:00,
2013-03-08 11:31:00,53.6,47.2,29.73,SW,225,6.3,-999.0,79,-99.99,,,0.13,Acu-Link.com,2013-03-08 18:31:00,
2013-03-08 11:46:00,55.8,45.4,29.72,SSW,202,5.8,-999.0,68,-99.99,,,0.13,Acu-Link.com,2013-03-08 18:46:00,
2013-03-08 12:01:00,56.5,43.2,29.70,SW,225,8.3,-999.0,61,-99.99,,,0.13,Acu-Link.com,2013-03-08 19:01:00,
2013-03-08 12:17:00,58.6,43.9,29.71,SW,225,9.4,-999.0,58,-99.99,,,0.13,Acu-Link.com,2013-03-08 19:17:00,
2013-03-08 12:32:00,62.4,44.0,29.70,SW,225,9.4,-999.0,51,-99.99,,,0.13,Acu-Link.com,2013-03-08 19:32:00,
2013-03-08 12:47:00,64.6,40.3,29.70,WNW,292,13.0,-999.0,41,-99.99,,,0.13,Acu-Link.com,2013-03-08 19:47:00,
2013-03-08 13:03:00,65.8,38.1,29.68,WNW,292,21.3,-999.0,36,-99.99,,,0.13,Acu-Link.com,2013-03-08 20:03:00,
2013-03-08 13:18:00,65.3,33.1,29.68,WSW,247,11.9,-999.0,30,-99.99,,,0.13,Acu-Link.com,2013-03-08 20:18:00,
2013-03-08 13:33:00,64.9,33.6,29.67,SW,225,13.4,-999.0,31,-99.99,,,0.13,Acu-Link.com,2013-03-08 20:33:00,
2013-03-08 13:48:00,66.0,33.7,29.66,WSW,247,14.1,-999.0,30,-99.99,,,0.13,Acu-Link.com,2013-03-08 20:48:00,
2013-03-08 14:03:00,66.6,33.3,29.66,SW,225,16.6,-999.0,29,-99.99,,,0.13,Acu-Link.com,2013-03-08 21:03:00,
2013-03-08 14:18:00,66.7,31.7,29.66,WSW,247,15.4,-999.0,27,-99.99,,,0.13,Acu-Link.com,2013-03-08 21:18:00,
2013-03-08 14:34:00,66.2,31.2,29.65,SSW,202,16.1,-999.0,27,-99.99,,,0.13,Acu-Link.com,2013-03-08 21:34:00,
2013-03-08 14:49:00,65.3,33.1,29.65,West,270,17.7,-999.0,30,-99.99,,,0.13,Acu-Link.com,2013-03-08 21:49:00,
2013-03-08 15:04:00,64.4,36.2,29.66,SSW,202,17.0,-999.0,35,-99.99,,,0.13,Acu-Link.com,2013-03-08 22:04:00,
2013-03-08 15:19:00,64.0,33.6,29.65,South,180,19.7,-999.0,32,-99.99,,,0.13,Acu-Link.com,2013-03-08 22:19:00,
2013-03-08 15:34:00,63.7,33.3,29.66,SW,225,13.0,-999.0,32,-99.99,,,0.13,Acu-Link.com,2013-03-08 22:34:00,
2013-03-08 15:49:00,63.1,29.5,29.67,WSW,247,9.4,-999.0,28,-99.99,,,0.13,Acu-Link.com,2013-03-08 22:49:00,
2013-03-08 16:05:00,63.1,28.6,29.67,WSW,247,8.3,-999.0,27,-99.99,,,0.13,Acu-Link.com,2013-03-08 23:05:00,
2013-03-08 16:20:00,63.3,30.5,29.68,West,270,11.0,-999.0,29,-99.99,,,0.13,Acu-Link.com,2013-03-08 23:20:00,
2013-03-08 16:35:00,62.1,30.3,29.68,West,270,16.1,-999.0,30,-99.99,,,0.13,Acu-Link.com,2013-03-08 23:35:00,
2013-03-08 16:50:00,61.5,30.6,29.68,WNW,292,19.7,-999.0,31,-99.99,,,0.13,Acu-Link.com,2013-03-08 23:50:00,
2013-03-08 17:05:00,61.0,30.9,29.69,WNW,292,18.6,-999.0,32,-99.99,,,0.13,Acu-Link.com,2013-03-09 00:05:00,
2013-03-08 17:20:00,61.3,31.2,29.69,West,270,15.4,-999.0,32,-99.99,,,0.13,Acu-Link.com,2013-03-09 00:20:00,
2013-03-08 17:36:00,60.3,30.3,29.70,West,270,13.4,-999.0,32,-99.99,,,0.13,Acu-Link.com,2013-03-09 00:36:00,
2013-03-08 17:51:00,59.4,31.0,29.71,WNW,292,14.1,-999.0,34,-99.99,,,0.13,Acu-Link.com,2013-03-09 00:51:00,
2013-03-08 18:06:00,59.4,31.0,29.72,WNW,292,11.9,-999.0,34,-99.99,,,0.13,Acu-Link.com,2013-03-09 01:06:00,
2013-03-08 18:22:00,59.2,30.1,29.72,West,270,11.4,-999.0,33,-99.99,,,0.13,Acu-Link.com,2013-03-09 01:22:00,
2013-03-08 18:37:00,58.5,30.2,29.72,WNW,292,13.4,-999.0,34,-99.99,,,0.13,Acu-Link.com,2013-03-09 01:37:00,
2013-03-08 18:52:00,58.1,31.3,29.72,WSW,247,9.8,-999.0,36,-99.99,,,0.13,Acu-Link.com,2013-03-09 01:52:00,
2013-03-08 19:07:00,57.9,30.4,29.72,WNW,292,9.4,-999.0,35,-99.99,,,0.13,Acu-Link.com,2013-03-09 02:07:00,
2013-03-08 19:22:00,57.6,30.8,29.72,WNW,292,7.8,-999.0,36,-99.99,,,0.13,Acu-Link.com,2013-03-09 02:22:00,
2013-03-08 19:37:00,57.0,31.7,29.73,WNW,292,11.0,-999.0,38,-99.99,,,0.13,Acu-Link.com,2013-03-09 02:37:00,
2013-03-08 19:52:00,57.2,31.2,29.74,West,270,8.9,-999.0,37,-99.99,,,0.13,Acu-Link.com,2013-03-09 02:52:00,
2013-03-08 20:07:00,56.7,32.0,29.75,West,270,13.4,-999.0,39,-99.99,,,0.13,Acu-Link.com,2013-03-09 03:07:00,
2013-03-08 20:22:00,55.4,32.1,29.76,West,270,13.4,-999.0,41,-99.99,,,0.13,Acu-Link.com,2013-03-09 03:22:00,
2013-03-08 20:37:00,55.6,32.3,29.76,West,270,8.9,-999.0,41,-99.99,,,0.13,Acu-Link.com,2013-03-09 03:37:00,
2013-03-08 20:52:00,55.2,31.9,29.77,West,270,19.7,-999.0,41,-99.99,,,0.13,Acu-Link.com,2013-03-09 03:52:00,
2013-03-08 21:07:00,54.3,34.0,29.79,West,270,14.5,-999.0,46,-99.99,,,0.13,Acu-Link.com,2013-03-09 04:07:00,
2013-03-08 21:22:00,53.8,34.6,29.79,West,270,18.1,-999.0,48,-99.99,,,0.13,Acu-Link.com,2013-03-09 04:22:00,
2013-03-08 21:38:00,54.0,34.2,29.80,West,270,11.0,-999.0,47,-99.99,,,0.13,Acu-Link.com,2013-03-09 04:38:00,
2013-03-08 21:53:00,53.8,34.0,29.81,WSW,247,14.5,-999.0,47,-99.99,,,0.13,Acu-Link.com,2013-03-09 04:53:00,
2013-03-08 22:08:00,53.6,33.9,29.82,West,270,8.9,-999.0,47,-99.99,,,0.13,Acu-Link.com,2013-03-09 05:08:00,
2013-03-08 22:23:00,53.4,33.2,29.82,West,270,14.1,-999.0,46,-99.99,,,0.13,Acu-Link.com,2013-03-09 05:23:00,
2013-03-08 22:38:00,53.1,33.4,29.83,SW,225,6.7,-999.0,47,-99.99,,,0.13,Acu-Link.com,2013-03-09 05:38:00,
2013-03-08 22:53:00,52.9,33.2,29.84,West,270,6.7,-999.0,47,-99.99,,,0.13,Acu-Link.com,2013-03-09 05:53:00,
2013-03-08 23:08:00,53.2,33.0,29.83,West,270,9.4,-999.0,46,-99.99,,,0.13,Acu-Link.com,2013-03-09 06:08:00,
2013-03-08 23:23:00,53.2,33.0,29.83,West,270,11.4,-999.0,46,-99.99,,,0.13,Acu-Link.com,2013-03-09 06:23:00,
2013-03-08 23:39:00,53.4,33.2,29.83,West,270,7.8,-999.0,46,-99.99,,,0.13,Acu-Link.com,2013-03-09 06:39:00,
2013-03-08 23:54:00,53.1,32.8,29.84,West,270,15.4,-999.0,46,-99.99,,,0.13,Acu-Link.com,2013-03-09 06:54:00,